sensor_id;sensor_type;location;lat;lon;timestamp;temperature;humidity
71084;DHT22;58741;52.672;13.548;2023-04-24T00:00:22;10.90;99.90
71084;DHT22;58741;52.672;13.548;2023-04-24T00:02:48;10.90;99.90
71084;DHT22;58741;52.672;13.548;2023-04-24T00:05:14;10.90;99.90
71084;DHT22;58741;52.672;13.548;2023-04-24T00:07:41;10.90;99.90
71084;DHT22;58741;52.672;13.548;2023-04-24T00:10:07;10.90;99.90
71084;DHT22;58741;52.672;13.548;2023-04-24T00:12:33;10.80;99.90
71084;DHT22;58741;52.672;13.548;2023-04-24T00:14:59;10.80;99.90
71084;DHT22;58741;52.672;13.548;2023-04-24T00:17:24;10.80;99.90
71084;DHT22;58741;52.672;13.548;2023-04-24T00:19:50;10.80;99.90
71084;DHT22;58741;52.672;13.548;2023-04-24T00:22:17;10.80;99.90
71084;DHT22;58741;52.672;13.548;2023-04-24T00:24:43;10.80;99.90
71084;DHT22;58741;52.672;13.548;2023-04-24T00:27:09;10.80;99.90
71084;DHT22;58741;52.672;13.548;2023-04-24T00:29:34;10.80;99.90
71084;DHT22;58741;52.672;13.548;2023-04-24T00:32:00;10.80;99.90
71084;DHT22;58741;52.672;13.548;2023-04-24T00:34:26;10.80;99.90
71084;DHT22;58741;52.672;13.548;2023-04-24T00:36:51;10.70;99.90
71084;DHT22;58741;52.672;13.548;2023-04-24T00:39:20;10.70;99.90
71084;DHT22;58741;52.672;13.548;2023-04-24T00:41:46;10.70;99.90
71084;DHT22;58741;52.672;13.548;2023-04-24T00:44:14;10.70;99.90
71084;DHT22;58741;52.672;13.548;2023-04-24T00:46:40;10.70;99.90
71084;DHT22;58741;52.672;13.548;2023-04-24T00:49:05;10.70;99.90
71084;DHT22;58741;52.672;13.548;2023-04-24T00:51:32;10.70;99.90
71084;DHT22;58741;52.672;13.548;2023-04-24T00:53:58;10.70;99.90
71084;DHT22;58741;52.672;13.548;2023-04-24T00:56:24;10.60;99.90
71084;DHT22;58741;52.672;13.548;2023-04-24T00:58:50;10.60;99.90
71084;DHT22;58741;52.672;13.548;2023-04-24T01:01:18;10.60;99.90
71084;DHT22;58741;52.672;13.548;2023-04-24T01:03:46;10.60;99.90
71084;DHT22;58741;52.672;13.548;2023-04-24T01:06:12;10.60;99.90
71084;DHT22;58741;52.672;13.548;2023-04-24T01:08:38;10.60;99.90
71084;DHT22;58741;52.672;13.548;2023-04-24T01:11:05;10.60;99.90
71084;DHT22;58741;52.672;13.548;2023-04-24T01:13:31;10.60;99.90
71084;DHT22;58741;52.672;13.548;2023-04-24T01:15:57;10.60;99.90
71084;DHT22;58741;52.672;13.548;2023-04-24T01:18:23;10.60;99.90
71084;DHT22;58741;52.672;13.548;2023-04-24T01:20:51;10.60;99.90
71084;DHT22;58741;52.672;13.548;2023-04-24T01:23:18;10.60;99.90
71084;DHT22;58741;52.672;13.548;2023-04-24T01:25:44;10.60;99.90
71084;DHT22;58741;52.672;13.548;2023-04-24T01:28:10;10.60;99.90
71084;DHT22;58741;52.672;13.548;2023-04-24T01:30:37;10.60;99.90
71084;DHT22;58741;52.672;13.548;2023-04-24T01:33:03;10.60;99.90
71084;DHT22;58741;52.672;13.548;2023-04-24T01:35:29;10.60;99.90
71084;DHT22;58741;52.672;13.548;2023-04-24T01:37:54;10.60;99.90
71084;DHT22;58741;52.672;13.548;2023-04-24T01:40:20;10.60;99.90
71084;DHT22;58741;52.672;13.548;2023-04-24T01:42:46;10.70;99.90
71084;DHT22;58741;52.672;13.548;2023-04-24T01:45:12;10.70;99.90
71084;DHT22;58741;52.672;13.548;2023-04-24T01:47:41;10.70;99.90
71084;DHT22;58741;52.672;13.548;2023-04-24T01:50:07;10.70;99.90
71084;DHT22;58741;52.672;13.548;2023-04-24T01:52:33;10.70;99.90
71084;DHT22;58741;52.672;13.548;2023-04-24T01:55:00;10.70;99.90
71084;DHT22;58741;52.672;13.548;2023-04-24T01:57:26;10.70;99.90
71084;DHT22;58741;52.672;13.548;2023-04-24T01:59:52;10.70;99.90
71084;DHT22;58741;52.672;13.548;2023-04-24T02:02:17;10.70;99.90
71084;DHT22;58741;52.672;13.548;2023-04-24T02:04:43;10.70;99.90
71084;DHT22;58741;52.672;13.548;2023-04-24T02:07:09;10.70;99.90
71084;DHT22;58741;52.672;13.548;2023-04-24T02:09:34;10.70;99.90
71084;DHT22;58741;52.672;13.548;2023-04-24T02:12:00;10.60;99.90
71084;DHT22;58741;52.672;13.548;2023-04-24T02:14:26;10.60;99.90
71084;DHT22;58741;52.672;13.548;2023-04-24T02:16:51;10.70;99.90
71084;DHT22;58741;52.672;13.548;2023-04-24T02:19:18;10.70;99.90
71084;DHT22;58741;52.672;13.548;2023-04-24T02:21:44;10.70;99.90
71084;DHT22;58741;52.672;13.548;2023-04-24T02:24:09;10.70;99.90
71084;DHT22;58741;52.672;13.548;2023-04-24T02:26:35;10.70;99.90
71084;DHT22;58741;52.672;13.548;2023-04-24T02:29:01;10.70;99.90
71084;DHT22;58741;52.672;13.548;2023-04-24T02:31:27;10.70;99.90
71084;DHT22;58741;52.672;13.548;2023-04-24T02:33:52;10.70;99.90
71084;DHT22;58741;52.672;13.548;2023-04-24T02:36:18;10.70;99.90
71084;DHT22;58741;52.672;13.548;2023-04-24T02:38:44;10.70;99.90
71084;DHT22;58741;52.672;13.548;2023-04-24T02:41:11;10.70;99.90
71084;DHT22;58741;52.672;13.548;2023-04-24T02:43:37;10.60;99.90
71084;DHT22;58741;52.672;13.548;2023-04-24T02:46:03;10.60;99.90
71084;DHT22;58741;52.672;13.548;2023-04-24T02:48:28;10.60;99.90
71084;DHT22;58741;52.672;13.548;2023-04-24T02:50:54;10.60;99.90
71084;DHT22;58741;52.672;13.548;2023-04-24T02:53:20;10.60;99.90
71084;DHT22;58741;52.672;13.548;2023-04-24T02:55:45;10.60;99.90
71084;DHT22;58741;52.672;13.548;2023-04-24T02:58:11;10.60;99.90
71084;DHT22;58741;52.672;13.548;2023-04-24T03:00:38;10.60;99.90
71084;DHT22;58741;52.672;13.548;2023-04-24T03:03:04;10.60;99.90
71084;DHT22;58741;52.672;13.548;2023-04-24T03:05:30;10.60;99.90
71084;DHT22;58741;52.672;13.548;2023-04-24T03:07:56;10.60;99.90
71084;DHT22;58741;52.672;13.548;2023-04-24T03:10:22;10.60;99.90
71084;DHT22;58741;52.672;13.548;2023-04-24T03:12:48;10.60;99.90
71084;DHT22;58741;52.672;13.548;2023-04-24T03:15:14;10.60;99.90
71084;DHT22;58741;52.672;13.548;2023-04-24T03:17:39;10.60;99.90
71084;DHT22;58741;52.672;13.548;2023-04-24T03:20:06;10.70;99.90
71084;DHT22;58741;52.672;13.548;2023-04-24T03:22:33;10.60;99.90
71084;DHT22;58741;52.672;13.548;2023-04-24T03:25:00;10.60;99.90
71084;DHT22;58741;52.672;13.548;2023-04-24T03:27:26;10.70;99.90
71084;DHT22;58741;52.672;13.548;2023-04-24T03:29:59;10.60;99.90
71084;DHT22;58741;52.672;13.548;2023-04-24T03:32:46;10.70;99.90
71084;DHT22;58741;52.672;13.548;2023-04-24T03:35:15;10.70;99.90
71084;DHT22;58741;52.672;13.548;2023-04-24T03:37:41;10.70;99.90
71084;DHT22;58741;52.672;13.548;2023-04-24T03:40:26;10.70;99.90
71084;DHT22;58741;52.672;13.548;2023-04-24T03:42:53;10.70;99.90
71084;DHT22;58741;52.672;13.548;2023-04-24T03:45:19;10.70;99.90
71084;DHT22;58741;52.672;13.548;2023-04-24T03:47:48;10.70;99.90
71084;DHT22;58741;52.672;13.548;2023-04-24T03:50:13;10.70;99.90
71084;DHT22;58741;52.672;13.548;2023-04-24T03:52:42;10.80;99.90
71084;DHT22;58741;52.672;13.548;2023-04-24T03:55:08;10.80;99.90
71084;DHT22;58741;52.672;13.548;2023-04-24T03:57:40;10.80;99.90
71084;DHT22;58741;52.672;13.548;2023-04-24T04:00:15;10.80;99.90
71084;DHT22;58741;52.672;13.548;2023-04-24T04:02:42;10.80;99.90
71084;DHT22;58741;52.672;13.548;2023-04-24T04:05:08;10.80;99.90
71084;DHT22;58741;52.672;13.548;2023-04-24T04:07:34;10.90;99.90
71084;DHT22;58741;52.672;13.548;2023-04-24T04:10:00;10.90;99.90
71084;DHT22;58741;52.672;13.548;2023-04-24T04:12:26;10.90;99.90
71084;DHT22;58741;52.672;13.548;2023-04-24T04:14:53;10.90;99.90
71084;DHT22;58741;52.672;13.548;2023-04-24T04:17:19;10.90;99.90
71084;DHT22;58741;52.672;13.548;2023-04-24T04:19:44;10.90;99.90
71084;DHT22;58741;52.672;13.548;2023-04-24T04:22:10;10.90;99.90
71084;DHT22;58741;52.672;13.548;2023-04-24T04:24:40;10.90;99.90
71084;DHT22;58741;52.672;13.548;2023-04-24T04:27:07;10.90;99.90
71084;DHT22;58741;52.672;13.548;2023-04-24T04:29:49;10.90;99.90
71084;DHT22;58741;52.672;13.548;2023-04-24T04:32:15;11.00;99.90
71084;DHT22;58741;52.672;13.548;2023-04-24T04:34:41;11.00;99.90
71084;DHT22;58741;52.672;13.548;2023-04-24T04:37:10;11.00;99.90
71084;DHT22;58741;52.672;13.548;2023-04-24T04:40:00;11.00;99.90
71084;DHT22;58741;52.672;13.548;2023-04-24T04:42:30;11.00;99.90
71084;DHT22;58741;52.672;13.548;2023-04-24T04:44:58;11.00;99.90
71084;DHT22;58741;52.672;13.548;2023-04-24T04:47:30;11.00;99.90
71084;DHT22;58741;52.672;13.548;2023-04-24T04:49:58;11.00;99.90
71084;DHT22;58741;52.672;13.548;2023-04-24T04:52:26;11.00;99.90
71084;DHT22;58741;52.672;13.548;2023-04-24T04:55:00;11.00;99.90
71084;DHT22;58741;52.672;13.548;2023-04-24T04:57:39;11.00;99.90
71084;DHT22;58741;52.672;13.548;2023-04-24T05:00:05;11.10;99.90
71084;DHT22;58741;52.672;13.548;2023-04-24T05:02:42;11.10;99.90
71084;DHT22;58741;52.672;13.548;2023-04-24T05:05:08;11.10;99.90
71084;DHT22;58741;52.672;13.548;2023-04-24T05:07:34;11.10;99.90
71084;DHT22;58741;52.672;13.548;2023-04-24T05:10:00;11.10;99.90
71084;DHT22;58741;52.672;13.548;2023-04-24T05:12:25;11.20;99.90
71084;DHT22;58741;52.672;13.548;2023-04-24T05:14:52;11.20;99.90
71084;DHT22;58741;52.672;13.548;2023-04-24T05:17:18;11.20;99.90
71084;DHT22;58741;52.672;13.548;2023-04-24T05:19:44;11.30;99.90
71084;DHT22;58741;52.672;13.548;2023-04-24T05:22:10;11.30;99.90
71084;DHT22;58741;52.672;13.548;2023-04-24T05:24:45;11.30;99.90
71084;DHT22;58741;52.672;13.548;2023-04-24T05:27:31;11.40;99.90
71084;DHT22;58741;52.672;13.548;2023-04-24T05:29:57;11.40;99.90
71084;DHT22;58741;52.672;13.548;2023-04-24T05:32:23;11.50;99.90
71084;DHT22;58741;52.672;13.548;2023-04-24T05:34:49;11.50;99.90
71084;DHT22;58741;52.672;13.548;2023-04-24T05:37:14;11.50;99.90
71084;DHT22;58741;52.672;13.548;2023-04-24T05:39:40;11.60;99.90
71084;DHT22;58741;52.672;13.548;2023-04-24T05:42:07;11.60;99.90
71084;DHT22;58741;52.672;13.548;2023-04-24T05:44:33;11.60;99.90
71084;DHT22;58741;52.672;13.548;2023-04-24T05:46:58;11.70;99.90
71084;DHT22;58741;52.672;13.548;2023-04-24T05:49:24;11.80;99.90
71084;DHT22;58741;52.672;13.548;2023-04-24T05:51:50;11.90;99.90
71084;DHT22;58741;52.672;13.548;2023-04-24T05:54:16;12.00;99.90
71084;DHT22;58741;52.672;13.548;2023-04-24T05:56:42;12.10;99.90
71084;DHT22;58741;52.672;13.548;2023-04-24T05:59:08;12.20;99.90
71084;DHT22;58741;52.672;13.548;2023-04-24T06:01:33;12.20;99.90
71084;DHT22;58741;52.672;13.548;2023-04-24T06:04:07;12.30;99.90
71084;DHT22;58741;52.672;13.548;2023-04-24T06:06:34;12.50;99.90
71084;DHT22;58741;52.672;13.548;2023-04-24T06:09:00;12.60;99.90
71084;DHT22;58741;52.672;13.548;2023-04-24T06:11:27;12.70;99.90
71084;DHT22;58741;52.672;13.548;2023-04-24T06:13:52;12.80;99.90
71084;DHT22;58741;52.672;13.548;2023-04-24T06:16:53;12.90;99.90
71084;DHT22;58741;52.672;13.548;2023-04-24T06:19:30;13.10;99.90
71084;DHT22;58741;52.672;13.548;2023-04-24T06:21:56;13.20;99.90
71084;DHT22;58741;52.672;13.548;2023-04-24T06:24:21;13.30;99.90
71084;DHT22;58741;52.672;13.548;2023-04-24T06:26:47;13.50;99.90
71084;DHT22;58741;52.672;13.548;2023-04-24T06:29:12;13.60;99.90
71084;DHT22;58741;52.672;13.548;2023-04-24T06:31:38;13.70;99.90
71084;DHT22;58741;52.672;13.548;2023-04-24T06:34:04;13.90;99.90
71084;DHT22;58741;52.672;13.548;2023-04-24T06:36:30;14.00;99.90
71084;DHT22;58741;52.672;13.548;2023-04-24T06:38:56;14.20;99.90
71084;DHT22;58741;52.672;13.548;2023-04-24T06:41:22;14.30;99.90
71084;DHT22;58741;52.672;13.548;2023-04-24T06:43:48;14.40;99.70
71084;DHT22;58741;52.672;13.548;2023-04-24T06:46:14;14.40;99.00
71084;DHT22;58741;52.672;13.548;2023-04-24T06:48:39;14.50;99.40
71084;DHT22;58741;52.672;13.548;2023-04-24T06:51:05;14.60;97.90
71084;DHT22;58741;52.672;13.548;2023-04-24T06:53:31;14.60;98.70
71084;DHT22;58741;52.672;13.548;2023-04-24T06:55:56;14.80;97.40
71084;DHT22;58741;52.672;13.548;2023-04-24T06:58:24;15.00;98.00
71084;DHT22;58741;52.672;13.548;2023-04-24T07:00:50;15.20;96.20
71084;DHT22;58741;52.672;13.548;2023-04-24T07:03:16;15.40;97.40
71084;DHT22;58741;52.672;13.548;2023-04-24T07:05:41;15.60;97.30
71084;DHT22;58741;52.672;13.548;2023-04-24T07:08:07;15.90;96.10
71084;DHT22;58741;52.672;13.548;2023-04-24T07:10:34;16.00;93.00
71084;DHT22;58741;52.672;13.548;2023-04-24T07:13:01;16.10;92.90
71084;DHT22;58741;52.672;13.548;2023-04-24T07:15:26;16.30;91.40
71084;DHT22;58741;52.672;13.548;2023-04-24T07:17:52;16.40;92.10
71084;DHT22;58741;52.672;13.548;2023-04-24T07:20:18;16.50;90.30
71084;DHT22;58741;52.672;13.548;2023-04-24T07:22:43;16.60;90.20
71084;DHT22;58741;52.672;13.548;2023-04-24T07:25:09;16.70;90.90
71084;DHT22;58741;52.672;13.548;2023-04-24T07:27:35;16.80;90.10
71084;DHT22;58741;52.672;13.548;2023-04-24T07:30:02;16.80;89.40
71084;DHT22;58741;52.672;13.548;2023-04-24T07:32:29;16.90;87.20
71084;DHT22;58741;52.672;13.548;2023-04-24T07:34:55;17.10;89.20
71084;DHT22;58741;52.672;13.548;2023-04-24T07:37:20;17.30;87.70
71084;DHT22;58741;52.672;13.548;2023-04-24T07:39:46;17.40;86.10
71084;DHT22;58741;52.672;13.548;2023-04-24T07:42:12;17.40;83.90
71084;DHT22;58741;52.672;13.548;2023-04-24T07:44:37;17.50;84.60
71084;DHT22;58741;52.672;13.548;2023-04-24T07:47:03;17.70;85.00
71084;DHT22;58741;52.672;13.548;2023-04-24T07:49:28;17.90;85.80
71084;DHT22;58741;52.672;13.548;2023-04-24T07:51:54;18.10;82.70
71084;DHT22;58741;52.672;13.548;2023-04-24T07:54:20;18.20;83.50
71084;DHT22;58741;52.672;13.548;2023-04-24T07:56:46;18.40;77.40
71084;DHT22;58741;52.672;13.548;2023-04-24T07:59:11;18.50;75.80
71084;DHT22;58741;52.672;13.548;2023-04-24T08:01:37;18.60;74.40
71084;DHT22;58741;52.672;13.548;2023-04-24T08:04:03;18.60;74.70
71084;DHT22;58741;52.672;13.548;2023-04-24T08:06:29;18.70;76.20
71084;DHT22;58741;52.672;13.548;2023-04-24T08:08:59;18.80;77.80
71084;DHT22;58741;52.672;13.548;2023-04-24T08:11:25;18.90;75.10
71084;DHT22;58741;52.672;13.548;2023-04-24T08:13:51;18.80;71.90
71084;DHT22;58741;52.672;13.548;2023-04-24T08:16:17;18.80;74.40
71084;DHT22;58741;52.672;13.548;2023-04-24T08:18:43;18.90;74.00
71084;DHT22;58741;52.672;13.548;2023-04-24T08:21:08;19.10;72.40
71084;DHT22;58741;52.672;13.548;2023-04-24T08:23:34;19.40;73.30
71084;DHT22;58741;52.672;13.548;2023-04-24T08:26:00;19.50;68.80
71084;DHT22;58741;52.672;13.548;2023-04-24T08:28:25;19.60;71.90
71084;DHT22;58741;52.672;13.548;2023-04-24T08:30:51;19.80;70.10
71084;DHT22;58741;52.672;13.548;2023-04-24T08:33:21;20.00;69.70
71084;DHT22;58741;52.672;13.548;2023-04-24T08:35:46;20.20;68.50
71084;DHT22;58741;52.672;13.548;2023-04-24T08:38:12;20.10;65.10
71084;DHT22;58741;52.672;13.548;2023-04-24T08:40:37;20.10;66.20
71084;DHT22;58741;52.672;13.548;2023-04-24T08:43:04;20.10;67.60
71084;DHT22;58741;52.672;13.548;2023-04-24T08:45:29;20.10;65.90
71084;DHT22;58741;52.672;13.548;2023-04-24T08:47:55;20.10;65.30
71084;DHT22;58741;52.672;13.548;2023-04-24T08:50:24;20.20;66.90
71084;DHT22;58741;52.672;13.548;2023-04-24T08:52:51;20.20;63.60
71084;DHT22;58741;52.672;13.548;2023-04-24T08:55:19;20.30;64.70
71084;DHT22;58741;52.672;13.548;2023-04-24T08:57:49;20.40;62.40
71084;DHT22;58741;52.672;13.548;2023-04-24T09:00:15;20.50;65.20
71084;DHT22;58741;52.672;13.548;2023-04-24T09:02:42;20.60;65.60
71084;DHT22;58741;52.672;13.548;2023-04-24T09:05:10;20.70;64.50
71084;DHT22;58741;52.672;13.548;2023-04-24T09:07:36;20.80;63.60
71084;DHT22;58741;52.672;13.548;2023-04-24T09:10:05;20.80;57.90
71084;DHT22;58741;52.672;13.548;2023-04-24T09:12:32;20.70;60.80
71084;DHT22;58741;52.672;13.548;2023-04-24T09:14:58;20.70;62.10
71084;DHT22;58741;52.672;13.548;2023-04-24T09:17:24;20.70;62.80
71084;DHT22;58741;52.672;13.548;2023-04-24T09:19:52;20.80;63.50
71084;DHT22;58741;52.672;13.548;2023-04-24T09:22:17;20.80;62.40
71084;DHT22;58741;52.672;13.548;2023-04-24T09:24:45;20.70;61.40
71084;DHT22;58741;52.672;13.548;2023-04-24T09:27:11;20.80;59.60
71084;DHT22;58741;52.672;13.548;2023-04-24T09:29:38;20.60;59.30
71084;DHT22;58741;52.672;13.548;2023-04-24T09:32:21;20.60;60.80
71084;DHT22;58741;52.672;13.548;2023-04-24T09:34:48;20.60;63.30
71084;DHT22;58741;52.672;13.548;2023-04-24T09:37:29;20.60;60.10
71084;DHT22;58741;52.672;13.548;2023-04-24T09:40:17;20.60;59.20
71084;DHT22;58741;52.672;13.548;2023-04-24T09:42:52;20.50;60.40
71084;DHT22;58741;52.672;13.548;2023-04-24T09:45:18;20.40;58.60
71084;DHT22;58741;52.672;13.548;2023-04-24T09:47:43;20.30;62.80
71084;DHT22;58741;52.672;13.548;2023-04-24T09:50:13;20.30;63.60
71084;DHT22;58741;52.672;13.548;2023-04-24T09:52:45;20.20;61.80
71084;DHT22;58741;52.672;13.548;2023-04-24T09:55:15;20.20;60.00
71084;DHT22;58741;52.672;13.548;2023-04-24T09:57:49;20.20;62.70
71084;DHT22;58741;52.672;13.548;2023-04-24T10:00:25;20.10;61.50
71084;DHT22;58741;52.672;13.548;2023-04-24T10:02:56;19.90;57.50
71084;DHT22;58741;52.672;13.548;2023-04-24T10:05:30;19.70;61.70
71084;DHT22;58741;52.672;13.548;2023-04-24T10:08:07;19.60;63.80
71084;DHT22;58741;52.672;13.548;2023-04-24T10:10:35;19.60;62.80
71084;DHT22;58741;52.672;13.548;2023-04-24T10:13:04;19.40;61.30
71084;DHT22;58741;52.672;13.548;2023-04-24T10:15:30;19.30;61.50
71084;DHT22;58741;52.672;13.548;2023-04-24T10:17:57;19.30;64.60
71084;DHT22;58741;52.672;13.548;2023-04-24T10:20:25;19.40;64.40
71084;DHT22;58741;52.672;13.548;2023-04-24T10:22:53;19.40;62.00
71084;DHT22;58741;52.672;13.548;2023-04-24T10:25:21;19.30;63.00
71084;DHT22;58741;52.672;13.548;2023-04-24T10:27:48;19.40;64.50
71084;DHT22;58741;52.672;13.548;2023-04-24T10:30:14;19.40;62.70
71084;DHT22;58741;52.672;13.548;2023-04-24T10:32:40;19.50;65.10
71084;DHT22;58741;52.672;13.548;2023-04-24T10:35:07;19.60;64.30
71084;DHT22;58741;52.672;13.548;2023-04-24T10:37:40;19.70;64.10
71084;DHT22;58741;52.672;13.548;2023-04-24T10:40:07;19.70;63.70
71084;DHT22;58741;52.672;13.548;2023-04-24T10:42:34;19.60;63.60
71084;DHT22;58741;52.672;13.548;2023-04-24T10:45:05;19.60;62.80
71084;DHT22;58741;52.672;13.548;2023-04-24T10:47:39;19.50;63.40
71084;DHT22;58741;52.672;13.548;2023-04-24T10:50:15;19.40;63.10
71084;DHT22;58741;52.672;13.548;2023-04-24T10:52:48;19.40;64.50
71084;DHT22;58741;52.672;13.548;2023-04-24T10:55:16;19.40;64.50
71084;DHT22;58741;52.672;13.548;2023-04-24T10:58:01;19.40;63.40
71084;DHT22;58741;52.672;13.548;2023-04-24T11:00:28;19.30;64.30
71084;DHT22;58741;52.672;13.548;2023-04-24T11:02:54;19.30;64.80
71084;DHT22;58741;52.672;13.548;2023-04-24T11:05:21;19.20;64.40
71084;DHT22;58741;52.672;13.548;2023-04-24T11:10:45;19.00;65.10
71084;DHT22;58741;52.672;13.548;2023-04-24T11:13:14;18.90;65.00
71084;DHT22;58741;52.672;13.548;2023-04-24T11:15:41;18.80;65.90
71084;DHT22;58741;52.672;13.548;2023-04-24T11:18:13;18.70;66.00
71084;DHT22;58741;52.672;13.548;2023-04-24T11:20:42;18.60;66.40
71084;DHT22;58741;52.672;13.548;2023-04-24T11:23:08;18.50;66.80
71084;DHT22;58741;52.672;13.548;2023-04-24T11:25:35;18.50;67.50
71084;DHT22;58741;52.672;13.548;2023-04-24T11:28:05;18.60;67.00
71084;DHT22;58741;52.672;13.548;2023-04-24T11:30:32;18.70;66.30
71084;DHT22;58741;52.672;13.548;2023-04-24T11:33:05;18.70;66.80
71084;DHT22;58741;52.672;13.548;2023-04-24T11:35:36;18.80;66.00
71084;DHT22;58741;52.672;13.548;2023-04-24T11:38:04;18.80;66.40
71084;DHT22;58741;52.672;13.548;2023-04-24T11:40:30;18.90;65.00
71084;DHT22;58741;52.672;13.548;2023-04-24T11:42:56;18.90;65.60
71084;DHT22;58741;52.672;13.548;2023-04-24T11:45:27;19.00;64.30
71084;DHT22;58741;52.672;13.548;2023-04-24T11:47:53;19.10;64.60
71084;DHT22;58741;52.672;13.548;2023-04-24T11:50:22;19.10;64.80
71084;DHT22;58741;52.672;13.548;2023-04-24T11:52:49;19.20;63.20
71084;DHT22;58741;52.672;13.548;2023-04-24T11:57:53;19.00;63.30
71084;DHT22;58741;52.672;13.548;2023-04-24T12:00:21;18.90;63.40
71084;DHT22;58741;52.672;13.548;2023-04-24T12:02:47;18.90;62.70
71084;DHT22;58741;52.672;13.548;2023-04-24T12:05:21;18.70;65.30
71084;DHT22;58741;52.672;13.548;2023-04-24T12:07:46;18.50;65.20
71084;DHT22;58741;52.672;13.548;2023-04-24T12:10:12;18.20;70.70
71084;DHT22;58741;52.672;13.548;2023-04-24T12:12:38;17.80;74.90
71084;DHT22;58741;52.672;13.548;2023-04-24T12:15:08;17.40;76.50
71084;DHT22;58741;52.672;13.548;2023-04-24T12:17:35;17.30;79.80
71084;DHT22;58741;52.672;13.548;2023-04-24T12:20:04;17.20;79.50
71084;DHT22;58741;52.672;13.548;2023-04-24T12:23:05;17.00;78.70
71084;DHT22;58741;52.672;13.548;2023-04-24T12:25:32;17.10;80.50
71084;DHT22;58741;52.672;13.548;2023-04-24T12:30:31;17.10;82.70
71084;DHT22;58741;52.672;13.548;2023-04-24T12:32:58;17.30;84.30
71084;DHT22;58741;52.672;13.548;2023-04-24T12:35:26;17.60;83.80
71084;DHT22;58741;52.672;13.548;2023-04-24T12:37:52;18.00;83.30
71084;DHT22;58741;52.672;13.548;2023-04-24T12:40:19;18.20;79.60
71084;DHT22;58741;52.672;13.548;2023-04-24T12:42:47;18.50;77.30
71084;DHT22;58741;52.672;13.548;2023-04-24T12:45:14;18.80;76.30
71084;DHT22;58741;52.672;13.548;2023-04-24T12:47:42;18.90;75.40
71084;DHT22;58741;52.672;13.548;2023-04-24T12:50:09;19.00;71.60
71084;DHT22;58741;52.672;13.548;2023-04-24T12:52:35;19.10;72.70
71084;DHT22;58741;52.672;13.548;2023-04-24T12:55:01;19.30;73.70
71084;DHT22;58741;52.672;13.548;2023-04-24T12:57:29;19.60;73.80
71084;DHT22;58741;52.672;13.548;2023-04-24T12:59:56;19.80;71.30
71084;DHT22;58741;52.672;13.548;2023-04-24T13:02:27;19.80;67.60
71084;DHT22;58741;52.672;13.548;2023-04-24T13:04:53;19.90;70.50
71084;DHT22;58741;52.672;13.548;2023-04-24T13:07:19;19.90;68.50
71084;DHT22;58741;52.672;13.548;2023-04-24T13:09:45;20.00;68.80
71084;DHT22;58741;52.672;13.548;2023-04-24T13:12:11;20.10;65.40
71084;DHT22;58741;52.672;13.548;2023-04-24T13:14:37;20.20;68.60
71084;DHT22;58741;52.672;13.548;2023-04-24T13:17:03;20.50;64.80
71084;DHT22;58741;52.672;13.548;2023-04-24T13:19:30;20.60;61.60
71084;DHT22;58741;52.672;13.548;2023-04-24T13:22:00;20.40;60.60
71084;DHT22;58741;52.672;13.548;2023-04-24T13:24:26;20.00;62.90
71084;DHT22;58741;52.672;13.548;2023-04-24T13:26:52;19.80;64.00
71084;DHT22;58741;52.672;13.548;2023-04-24T13:29:18;20.00;67.50
71084;DHT22;58741;52.672;13.548;2023-04-24T13:31:44;20.20;60.30
71084;DHT22;58741;52.672;13.548;2023-04-24T13:34:10;20.10;62.60
71084;DHT22;58741;52.672;13.548;2023-04-24T13:36:36;20.30;64.90
71084;DHT22;58741;52.672;13.548;2023-04-24T13:39:02;20.60;59.50
71084;DHT22;58741;52.672;13.548;2023-04-24T13:41:30;20.60;55.90
71084;DHT22;58741;52.672;13.548;2023-04-24T13:43:56;20.40;57.80
71084;DHT22;58741;52.672;13.548;2023-04-24T13:46:21;20.30;58.50
71084;DHT22;58741;52.672;13.548;2023-04-24T13:48:47;20.40;60.40
71084;DHT22;58741;52.672;13.548;2023-04-24T13:51:12;20.40;60.10
71084;DHT22;58741;52.672;13.548;2023-04-24T13:53:38;20.40;61.00
71084;DHT22;58741;52.672;13.548;2023-04-24T13:56:04;20.50;62.50
71084;DHT22;58741;52.672;13.548;2023-04-24T13:58:31;20.40;61.60
71084;DHT22;58741;52.672;13.548;2023-04-24T14:00:58;20.00;62.60
71084;DHT22;58741;52.672;13.548;2023-04-24T14:03:23;19.90;64.80
71084;DHT22;58741;52.672;13.548;2023-04-24T14:05:49;20.10;64.70
71084;DHT22;58741;52.672;13.548;2023-04-24T14:08:15;20.20;65.50
71084;DHT22;58741;52.672;13.548;2023-04-24T14:10:40;20.30;62.90
71084;DHT22;58741;52.672;13.548;2023-04-24T14:13:06;20.30;63.20
71084;DHT22;58741;52.672;13.548;2023-04-24T14:15:32;20.40;64.00
71084;DHT22;58741;52.672;13.548;2023-04-24T14:17:57;20.60;66.50
71084;DHT22;58741;52.672;13.548;2023-04-24T14:20:23;21.10;61.50
71084;DHT22;58741;52.672;13.548;2023-04-24T14:22:49;21.30;58.70
71084;DHT22;58741;52.672;13.548;2023-04-24T14:25:14;21.40;57.20
71084;DHT22;58741;52.672;13.548;2023-04-24T14:27:40;21.20;58.80
71084;DHT22;58741;52.672;13.548;2023-04-24T14:30:07;21.20;59.50
71084;DHT22;58741;52.672;13.548;2023-04-24T14:32:33;21.40;58.30
71084;DHT22;58741;52.672;13.548;2023-04-24T14:34:58;21.40;55.60
71084;DHT22;58741;52.672;13.548;2023-04-24T14:37:24;21.40;54.50
71084;DHT22;58741;52.672;13.548;2023-04-24T14:39:49;21.40;54.60
71084;DHT22;58741;52.672;13.548;2023-04-24T14:42:15;21.50;52.20
71084;DHT22;58741;52.672;13.548;2023-04-24T14:44:42;21.60;51.60
71084;DHT22;58741;52.672;13.548;2023-04-24T14:47:07;21.60;53.10
71084;DHT22;58741;52.672;13.548;2023-04-24T14:49:33;21.60;52.30
71084;DHT22;58741;52.672;13.548;2023-04-24T14:51:59;21.50;50.80
71084;DHT22;58741;52.672;13.548;2023-04-24T14:54:24;21.60;48.40
71084;DHT22;58741;52.672;13.548;2023-04-24T14:56:50;21.70;53.10
71084;DHT22;58741;52.672;13.548;2023-04-24T14:59:16;21.80;49.50
71084;DHT22;58741;52.672;13.548;2023-04-24T15:01:42;21.90;49.60
71084;DHT22;58741;52.672;13.548;2023-04-24T15:04:07;22.00;50.80
71084;DHT22;58741;52.672;13.548;2023-04-24T15:06:33;22.00;46.90
71084;DHT22;58741;52.672;13.548;2023-04-24T15:08:58;21.90;46.10
71084;DHT22;58741;52.672;13.548;2023-04-24T15:11:24;21.70;45.10
71084;DHT22;58741;52.672;13.548;2023-04-24T15:13:50;21.40;48.50
71084;DHT22;58741;52.672;13.548;2023-04-24T15:16:15;21.20;48.60
71084;DHT22;58741;52.672;13.548;2023-04-24T15:18:41;21.30;54.30
71084;DHT22;58741;52.672;13.548;2023-04-24T15:21:07;21.60;53.70
71084;DHT22;58741;52.672;13.548;2023-04-24T15:23:32;21.90;48.90